Terminal Aerodrome Forecast
Issued by NWS

Home | Current Version | Previous Version | Text Only | Print | Product List | Glossary On
Versions: 1 2 3 4 5 6 7 8 9 10 11 12 13 14
000
FTUS43 KIND 011100
TAFBMG
TAF
KBMG 011128Z 0112/0212 VRB03KT 1SM -SN BR OVC008
      TEMPO 0112/0116 1/2SM SN FZFG OVC005
     FM011600 28005KT 1SM -SN BR OVC006
     FM012000 29005KT 2SM BR VCSH OVC012
     FM020000 30006KT 4SM BR OVC020
     FM020800 33005KT P6SM BKN025
      AMD LTD TO CLD VIS AND WIND TIL 011400=

USA.gov is the U.S. government's official web portal to all federal, state and local government web resources and services.